Time;durP1;ratioP1;P1;durP2;ratioP2;P2;SDS_P1;SDS_P2;PMS_P1;PMS_P2;Temp;Humidity;BMP_temperature;BMP_pressure;BME280_temperature;BME280_humidity;BME280_pressure;Samples;Min_cycle;Max_cycle;Signal;HPM_P1;HPM_P2
2021/05/02 00:03:46;;;;;;;35.43;29.43;;;9.70;99.90;;;10.92;100.00;99673.47;4987015;28;81371;-60
2021/05/02 00:07:02;;;;;;;34.70;29.13;;;9.70;99.90;;;10.95;100.00;99674.97;4991981;28;97630;-62
2021/05/02 00:10:15;;;;;;;36.97;29.33;;;9.70;99.90;;;10.87;100.00;99672.34;4956315;28;95992;-62
2021/05/02 00:13:26;;;;;;;37.77;31.23;;;9.70;99.90;;;10.75;100.00;99678.06;4966549;28;89116;-62
2021/05/02 00:16:38;;;;;;;39.67;30.70;;;9.70;99.90;;;10.79;100.00;99674.03;4948067;28;79383;-63
2021/05/02 00:19:51;;;;;;;40.53;32.37;;;9.70;99.90;;;10.79;100.00;99667.84;4972840;28;63720;-61
2021/05/02 00:23:07;;;;;;;43.07;31.93;;;9.70;99.90;;;10.70;100.00;99659.03;4969547;28;75401;-61
2021/05/02 00:26:19;;;;;;;41.30;33.37;;;9.70;99.90;;;10.71;100.00;99662.53;4954313;28;86192;-61
2021/05/02 00:29:33;;;;;;;40.67;31.77;;;9.70;99.90;;;10.76;100.00;99657.47;4951690;28;90804;-60
2021/05/02 00:36:26;;;;;;;38.90;33.00;;;9.60;99.90;;;10.66;100.00;99652.34;4935214;28;69738;-61
2021/05/02 00:39:49;;;;;;;42.83;33.33;;;9.60;99.90;;;10.64;100.00;99653.50;4974538;28;74910;-62
2021/05/02 00:43:04;;;;;;;45.93;35.83;;;9.50;99.90;;;10.53;100.00;99648.53;4960842;28;64705;-61
2021/05/02 00:46:27;;;;;;;43.50;36.20;;;9.50;99.90;;;10.57;100.00;99645.38;4971192;28;68217;-62
2021/05/02 00:49:48;;;;;;;49.63;36.40;;;9.50;99.90;;;10.54;100.00;99652.91;4950353;28;63519;-61
2021/05/02 00:56:50;;;;;;;44.57;34.30;;;9.40;99.90;;;10.42;100.00;99649.75;4971636;28;65093;-63
2021/05/02 01:00:19;;;;;;;44.87;35.03;;;9.30;99.90;;;10.50;100.00;99656.94;4968216;28;74518;-62
2021/05/02 01:03:31;;;;;;;47.20;36.63;;;9.30;99.90;;;10.54;100.00;99656.41;4967799;28;75234;-62
2021/05/02 01:06:42;;;;;;;46.23;36.03;;;9.20;99.90;;;10.44;100.00;99645.91;4959551;28;87205;-62
2021/05/02 01:09:56;;;;;;;44.23;35.50;;;9.20;99.90;;;10.43;100.00;99654.94;4952027;28;88709;-62
2021/05/02 01:13:11;;;;;;;45.37;34.33;;;9.20;99.90;;;10.35;100.00;99646.13;4972041;28;74954;-62
2021/05/02 01:16:24;;;;;;;48.57;36.70;;;9.10;99.90;;;10.34;100.00;99650.63;4966036;28;74419;-63
2021/05/02 01:19:36;;;;;;;48.20;36.47;;;9.10;99.90;;;10.31;100.00;99644.78;4949078;28;94563;-61
2021/05/02 01:22:52;;;;;;;50.00;37.17;;;9.00;99.90;;;10.21;100.00;99642.31;4939795;28;85725;-62
2021/05/02 01:26:06;;;;;;;47.33;36.37;;;9.00;99.90;;;10.12;100.00;99637.97;4957675;28;79563;-61
2021/05/02 01:29:20;;;;;;;49.47;38.70;;;8.90;99.90;;;10.17;100.00;99626.75;4970657;28;68869;-62
2021/05/02 01:32:32;;;;;;;48.70;36.83;;;8.90;99.90;;;10.15;100.00;99610.03;4963130;28;85878;-62
2021/05/02 01:35:44;;;;;;;47.07;36.30;;;8.80;99.90;;;10.06;100.00;99615.41;4972447;28;77917;-63
2021/05/02 01:38:56;;;;;;;47.53;35.63;;;8.80;99.90;;;10.07;100.00;99616.25;4979503;28;60239;-63
2021/05/02 01:42:08;;;;;;;49.27;37.27;;;8.70;99.90;;;10.21;100.00;99609.41;4978747;28;52750;-63
2021/05/02 01:49:18;;;;;;;55.13;39.13;;;8.70;99.90;;;10.12;100.00;99610.41;4966049;28;78605;-62
2021/05/02 01:52:31;;;;;;;52.20;39.27;;;8.70;99.90;;;10.16;100.00;99611.72;4968841;28;77083;-63
2021/05/02 01:55:44;;;;;;;49.70;37.23;;;8.70;99.90;;;10.18;100.00;99597.22;4946862;28;91051;-61
2021/05/02 01:58:56;;;;;;;49.57;36.17;;;8.70;99.90;;;10.12;100.00;99605.06;4971078;28;72063;-63
2021/05/02 02:02:14;;;;;;;50.47;37.97;;;8.70;99.90;;;10.02;100.00;99594.53;4962077;28;78681;-62
2021/05/02 02:05:26;;;;;;;50.97;36.93;;;8.70;99.90;;;10.01;100.00;99591.03;4958537;28;90785;-62
2021/05/02 02:08:38;;;;;;;49.67;36.73;;;8.70;99.90;;;10.04;100.00;99595.22;4975143;28;67833;-63
2021/05/02 02:11:50;;;;;;;49.80;37.67;;;8.70;99.90;;;10.09;100.00;99593.69;4989323;28;58884;-62
2021/05/02 02:15:03;;;;;;;49.50;37.43;;;8.70;99.90;;;10.05;100.00;99588.84;4994872;28;66862;-62
2021/05/02 02:18:15;;;;;;;50.07;38.60;;;8.70;99.90;;;10.08;100.00;99596.53;4991183;28;66469;-62
2021/05/02 02:21:56;;;;;;;46.87;36.63;;;8.70;99.90;;;10.03;100.00;99596.22;4970863;28;70753;-63
2021/05/02 02:25:17;;;;;;;47.93;36.63;;;8.70;99.90;;;10.04;100.00;99601.38;4890117;28;73941;-63
2021/05/02 02:28:36;;;;;;;49.40;36.90;;;8.70;99.90;;;10.01;100.00;99609.75;4897114;28;69713;-63
2021/05/02 02:31:52;;;;;;;47.97;36.83;;;8.70;99.90;;;10.00;100.00;99609.94;4978818;28;66406;-62
2021/05/02 02:35:08;;;;;;;48.20;37.37;;;8.70;99.90;;;10.08;100.00;99608.06;4993851;28;66874;-63
2021/05/02 02:38:20;;;;;;;48.50;36.60;;;8.70;99.90;;;10.19;100.00;99604.22;4967746;28;79190;-63
2021/05/02 02:41:33;;;;;;;51.23;37.63;;;8.70;99.90;;;10.14;100.00;99606.53;4984532;28;77969;-63
2021/05/02 02:48:27;;;;;;;48.23;37.27;;;8.80;99.90;;;9.92;100.00;99605.44;4982047;28;73186;-63
2021/05/02 02:51:51;;;;;;;48.60;37.13;;;8.70;99.90;;;9.99;100.00;99616.28;4971961;28;83719;-63
2021/05/02 02:59:22;;;;;;;52.13;37.87;;;8.70;99.90;;;10.03;100.00;99614.91;4841788;28;84956;-63
2021/05/02 03:06:24;;;;;;;49.23;37.50;;;8.70;99.90;;;9.91;100.00;99617.13;4970071;28;77997;-61
2021/05/02 03:09:38;;;;;;;45.77;37.30;;;8.70;99.90;;;9.91;100.00;99617.13;4980201;28;94385;-60
2021/05/02 03:12:49;;;;;;;49.67;38.40;;;8.70;99.90;;;9.87;100.00;99612.31;4986301;28;88318;-62
2021/05/02 03:16:01;;;;;;;48.33;38.93;;;8.70;99.90;;;9.93;100.00;99616.94;4988390;28;94145;-63
2021/05/02 03:19:21;;;;;;;57.10;41.70;;;8.70;99.90;;;9.95;100.00;99612.28;4991176;28;86903;-64
2021/05/02 03:22:42;;;;;;;53.20;39.33;;;8.70;99.90;;;9.89;100.00;99611.09;4990687;28;75658;-64
2021/05/02 03:25:58;;;;;;;58.40;41.13;;;8.70;99.90;;;9.88;100.00;99613.97;4990908;28;69017;-65
2021/05/02 03:29:13;;;;;;;54.10;40.67;;;8.60;99.90;;;9.86;100.00;99602.63;4966842;28;92689;-66
2021/05/02 03:36:20;;;;;;;52.17;40.40;;;8.60;99.90;;;9.86;100.00;99608.78;4936780;28;93114;-65
2021/05/02 03:39:44;;;;;;;54.73;41.77;;;8.60;99.90;;;9.77;100.00;99601.78;4961286;28;84923;-65
2021/05/02 03:42:55;;;;;;;56.33;41.53;;;8.60;99.90;;;9.75;100.00;99597.63;4982065;28;89471;-64
2021/05/02 03:46:22;;;;;;;55.27;40.80;;;8.50;99.90;;;9.71;100.00;99602.47;4990147;28;73544;-63
2021/05/02 03:49:35;;;;;;;58.50;41.17;;;8.50;99.90;;;9.78;100.00;99591.94;4947830;28;88975;-62
2021/05/02 03:52:46;;;;;;;57.40;43.93;;;8.50;99.90;;;9.83;100.00;99601.13;4981787;28;56258;-63
2021/05/02 03:56:06;;;;;;;55.90;41.10;;;8.50;99.90;;;9.69;100.00;99601.78;4987897;28;53568;-60
2021/05/02 03:59:35;;;;;;;58.53;42.53;;;8.50;99.90;;;9.72;100.00;99594.28;4994315;28;58731;-60
2021/05/02 04:06:26;;;;;;;51.90;40.80;;;8.50;99.90;;;9.66;100.00;99596.78;4989104;28;65415;-62
2021/05/02 04:09:38;;;;;;;57.27;43.00;;;8.50;99.90;;;9.59;100.00;99593.97;4997777;28;56140;-61
2021/05/02 04:12:51;;;;;;;59.33;43.93;;;8.50;99.90;;;9.62;100.00;99601.66;4995830;28;63639;-62
2021/05/02 04:16:14;;;;;;;57.47;43.50;;;8.50;99.90;;;9.64;100.00;99601.50;4995131;28;58545;-61
2021/05/02 04:22:59;;;;;;;56.80;43.33;;;8.40;99.90;;;9.62;100.00;99606.16;4987948;28;72330;-61
2021/05/02 04:26:10;;;;;;;56.73;43.13;;;8.40;99.90;;;9.59;100.00;99601.97;4991986;28;66928;-61
2021/05/02 04:29:23;;;;;;;58.23;44.73;;;8.40;99.90;;;9.58;100.00;99612.84;4995249;28;61828;-60
2021/05/02 04:32:46;;;;;;;56.67;42.03;;;8.40;99.90;;;9.54;100.00;99617.66;4974423;28;70590;-59
2021/05/02 04:36:03;;;;;;;57.10;44.20;;;8.40;99.90;;;9.49;100.00;99613.84;4994371;28;69488;-59
2021/05/02 04:39:14;;;;;;;55.87;41.47;;;8.30;99.90;;;9.50;100.00;99620.84;4975899;28;75429;-60
2021/05/02 04:42:44;;;;;;;56.47;41.70;;;8.30;99.90;;;9.46;100.00;99631.03;4975486;28;94597;-58
2021/05/02 04:45:56;;;;;;;61.17;45.53;;;8.30;99.90;;;9.51;100.00;99619.84;4983998;28;82591;-61
2021/05/02 04:49:08;;;;;;;55.07;40.80;;;8.30;99.90;;;9.51;100.00;99631.38;4972399;28;90242;-58
2021/05/02 04:52:19;;;;;;;55.73;41.00;;;8.30;99.90;;;9.50;100.00;99631.53;4957518;28;97672;-60
2021/05/02 04:55:30;;;;;;;58.10;42.60;;;8.30;99.90;;;9.64;100.00;99631.69;4965611;28;96194;-58
2021/05/02 04:58:42;;;;;;;55.27;41.40;;;8.30;99.90;;;9.53;100.00;99634.69;4965276;28;96851;-59
2021/05/02 05:01:55;;;;;;;54.77;41.33;;;8.30;99.90;;;9.53;100.00;99640.03;4970203;28;90515;-60
2021/05/02 05:05:06;;;;;;;55.37;40.13;;;8.30;99.90;;;9.55;100.00;99646.03;4948312;28;91429;-58
2021/05/02 05:08:17;;;;;;;51.53;39.23;;;8.30;99.90;;;9.55;100.00;99643.38;4955943;28;85264;-59
2021/05/02 05:11:28;;;;;;;52.20;38.53;;;8.30;99.90;;;9.52;100.00;99651.72;4973693;28;90039;-59
2021/05/02 05:14:52;;;;;;;54.27;38.93;;;8.30;99.90;;;9.53;100.00;99660.56;4968356;28;94148;-59
2021/05/02 05:18:04;;;;;;;48.50;37.87;;;8.30;99.90;;;9.55;100.00;99658.56;4984819;28;76798;-60
2021/05/02 05:21:15;;;;;;;54.20;38.93;;;8.30;99.90;;;9.52;100.00;99669.59;4990484;28;75552;-58
2021/05/02 05:24:27;;;;;;;52.40;39.60;;;8.40;99.90;;;9.63;100.00;99663.94;4967270;28;71404;-60
2021/05/02 05:27:59;;;;;;;52.97;39.53;;;8.40;99.90;;;9.58;100.00;99660.91;4976085;28;90771;-58
2021/05/02 05:31:10;;;;;;;52.87;39.00;;;8.40;99.90;;;9.52;100.00;99667.72;4968634;28;89739;-60
2021/05/02 05:34:34;;;;;;;53.80;38.93;;;8.40;99.90;;;9.47;100.00;99672.75;4984488;28;81535;-60
2021/05/02 05:37:46;;;;;;;53.33;38.60;;;8.40;99.90;;;9.57;100.00;99668.09;4987288;28;65336;-58
2021/05/02 05:40:57;;;;;;;52.70;39.07;;;8.30;99.90;;;9.54;100.00;99684.44;4978219;28;81860;-60
2021/05/02 05:44:08;;;;;;;49.40;38.70;;;8.30;99.90;;;9.57;100.00;99676.09;4978354;28;78912;-59
2021/05/02 05:47:19;;;;;;;51.87;39.43;;;8.30;99.90;;;9.56;100.00;99689.63;4969647;28;81646;-60
2021/05/02 05:50:32;;;;;;;56.50;41.00;;;8.30;99.90;;;9.55;100.00;99691.44;4970190;28;90280;-58
2021/05/02 05:57:26;;;;;;;53.50;39.10;;;8.30;99.90;;;9.53;100.00;99703.28;5000015;28;53764;-60
2021/05/02 06:00:38;;;;;;;50.63;39.00;;;8.40;99.90;;;9.59;100.00;99706.16;4979466;28;65121;-58
2021/05/02 06:03:49;;;;;;;56.13;38.90;;;8.40;99.90;;;9.69;100.00;99712.16;4999451;28;47313;-60
2021/05/02 06:07:02;;;;;;;57.00;41.40;;;8.40;99.90;;;9.75;100.00;99707.16;4996881;28;50385;-60
2021/05/02 06:10:13;;;;;;;51.40;39.60;;;8.40;99.90;;;9.66;100.00;99719.66;4999641;28;50358;-61
2021/05/02 06:13:25;;;;;;;52.97;39.10;;;8.40;99.90;;;9.66;100.00;99719.66;4985854;28;57196;-60
2021/05/02 06:16:46;;;;;;;58.93;40.27;;;8.40;99.90;;;9.66;100.00;99715.16;4981795;28;45713;-59
2021/05/02 06:19:57;;;;;;;51.27;38.87;;;8.50;99.90;;;9.54;100.00;99708.47;4978053;28;51866;-59
2021/05/02 06:23:11;;;;;;;54.37;39.33;;;8.40;99.90;;;9.59;100.00;99710.66;4978979;28;57912;-60
2021/05/02 06:26:22;;;;;;;62.37;41.50;;;8.40;99.90;;;9.70;100.00;99713.00;4979747;28;51449;-60
2021/05/02 06:29:33;;;;;;;51.43;40.20;;;8.40;99.90;;;9.76;100.00;99714.19;4974327;28;52661;-60
2021/05/02 06:32:44;;;;;;;53.77;38.63;;;8.40;99.90;;;9.69;100.00;99724.69;4978031;28;50497;-59
2021/05/02 06:35:55;;;;;;;53.00;40.30;;;8.40;99.90;;;9.62;100.00;99719.19;4978034;28;54483;-60
2021/05/02 06:39:08;;;;;;;48.27;37.60;;;8.50;99.90;;;9.72;100.00;99717.19;4975257;28;58623;-59
2021/05/02 06:45:38;;;;;;;52.30;37.83;;;8.40;99.90;;;9.82;100.00;99724.19;4972903;28;61250;-58
2021/05/02 06:48:49;;;;;;;53.60;39.07;;;8.40;99.90;;;9.81;100.00;99725.19;4972064;28;59008;-60
2021/05/02 06:52:01;;;;;;;47.00;36.63;;;8.50;99.90;;;9.55;100.00;99720.00;4971804;28;54524;-59
2021/05/02 06:55:28;;;;;;;50.63;38.10;;;8.50;99.90;;;9.65;100.00;99723.34;4967157;28;72124;-60
2021/05/02 06:58:39;;;;;;;48.33;37.07;;;8.50;99.90;;;9.70;100.00;99721.00;4968054;28;77577;-60
2021/05/02 07:01:50;;;;;;;50.53;37.90;;;8.50;99.90;;;9.81;100.00;99719.84;4969073;28;78125;-60
2021/05/02 07:05:02;;;;;;;50.73;38.43;;;8.50;99.90;;;9.76;100.00;99725.69;4956813;28;85682;-60
2021/05/02 07:08:25;;;;;;;54.40;39.83;;;8.50;99.90;;;9.60;100.00;99726.53;4969598;28;65974;-60
2021/05/02 07:11:38;;;;;;;53.67;38.47;;;8.40;99.90;;;9.71;100.00;99728.03;4968759;28;74883;-61
2021/05/02 07:15:06;;;;;;;53.23;38.77;;;8.50;99.90;;;9.61;100.00;99722.00;4990068;28;74785;-60
2021/05/02 07:18:53;;;;;;;46.00;36.70;;;8.50;99.90;;;9.58;100.00;99727.69;4978884;28;69457;-58
2021/05/02 07:22:06;;;;;;;44.17;34.17;;;8.50;99.90;;;9.60;100.00;99726.53;4898561;28;66582;-60
2021/05/02 07:25:18;;;;;;;50.00;36.67;;;8.40;99.90;;;9.71;100.00;99730.69;4905513;28;72205;-59
2021/05/02 07:28:31;;;;;;;44.77;35.53;;;8.50;99.90;;;9.65;100.00;99732.19;4985265;28;71725;-60
2021/05/02 07:31:43;;;;;;;45.53;35.17;;;8.50;99.90;;;9.72;100.00;99730.53;4985346;28;72308;-58
2021/05/02 07:34:54;;;;;;;48.00;36.50;;;8.50;99.90;;;9.67;100.00;99730.19;4981344;28;78721;-60
2021/05/02 07:38:05;;;;;;;48.00;36.47;;;8.50;99.90;;;9.76;100.00;99730.22;4981761;28;71178;-60
2021/05/02 07:41:17;;;;;;;49.73;37.30;;;8.50;99.90;;;9.84;100.00;99730.19;4986646;28;71796;-60
2021/05/02 07:44:29;;;;;;;52.60;38.30;;;8.50;99.90;;;9.82;100.00;99738.38;4984847;28;64698;-60
2021/05/02 07:47:40;;;;;;;50.87;38.67;;;8.60;99.90;;;9.79;100.00;99728.03;4993534;28;65331;-61
2021/05/02 07:50:51;;;;;;;54.67;39.17;;;8.60;99.90;;;9.81;100.00;99734.03;4985469;28;72619;-58
2021/05/02 07:54:03;;;;;;;57.13;40.90;;;8.60;99.90;;;9.94;100.00;99733.53;4988257;28;69852;-61
2021/05/02 07:57:14;;;;;;;58.67;41.47;;;8.60;99.90;;;9.93;100.00;99742.56;4984403;28;64045;-60
2021/05/02 08:00:27;;;;;;;58.60;41.47;;;8.60;99.90;;;9.95;100.00;99741.38;4985425;28;71330;-60
2021/05/02 08:03:38;;;;;;;58.20;41.43;;;8.70;99.90;;;10.12;100.00;99733.38;4983469;28;74899;-59
2021/05/02 08:06:49;;;;;;;61.47;41.33;;;8.70;99.90;;;10.00;100.00;99739.06;4979886;28;83243;-61
2021/05/02 08:10:01;;;;;;;75.70;50.70;;;8.80;99.90;;;10.09;100.00;99735.38;4976974;28;85790;-58
2021/05/02 08:13:12;;;;;;;60.03;42.60;;;8.80;99.90;;;10.06;100.00;99740.22;4982517;28;77925;-62
2021/05/02 08:16:25;;;;;;;59.23;42.10;;;8.90;99.90;;;10.09;100.00;99747.91;4986953;28;66608;-58
2021/05/02 08:19:36;;;;;;;55.87;39.00;;;8.80;99.90;;;9.98;100.00;99748.25;4962111;28;82264;-60
2021/05/02 08:26:19;;;;;;;60.47;44.03;;;8.80;99.90;;;9.96;100.00;99752.91;4992525;28;66685;-58
2021/05/02 08:29:31;;;;;;;63.87;44.87;;;8.80;99.90;;;9.97;100.00;99758.09;4991592;28;72590;-59
2021/05/02 08:32:43;;;;;;;60.27;42.37;;;8.80;99.90;;;10.00;100.00;99759.59;4989421;28;69578;-58
2021/05/02 08:36:01;;;;;;;58.20;40.53;;;8.80;99.90;;;10.01;100.00;99762.09;4988200;28;64776;-60
2021/05/02 08:42:29;;;;;;;63.47;42.00;;;8.80;99.90;;;10.22;100.00;99768.81;4981902;28;83476;-58
2021/05/02 08:46:17;;;;;;;61.20;42.53;;;8.90;99.90;;;10.30;100.00;99769.63;4981525;28;83157;-60
2021/05/02 08:49:31;;;;;;;59.60;42.33;;;8.90;99.90;;;10.28;100.00;99768.97;4969970;28;82874;-60
2021/05/02 08:52:42;;;;;;;64.40;43.40;;;9.00;99.90;;;10.20;100.00;99762.78;4966667;28;80248;-60
2021/05/02 08:55:53;;;;;;;59.73;43.27;;;9.00;99.90;;;10.22;100.00;99771.50;4983331;28;84802;-60
2021/05/02 08:59:05;;;;;;;65.60;44.90;;;9.00;99.90;;;10.37;100.00;99770.66;4981306;28;79401;-61
2021/05/02 09:02:17;;;;;;;67.63;44.40;;;9.10;99.90;;;10.51;100.00;99774.44;4989006;28;77540;-61
2021/05/02 09:05:38;;;;;;;67.37;45.40;;;9.10;99.90;;;10.54;100.00;99774.09;4965206;28;78005;-58
2021/05/02 09:09:04;;;;;;;66.33;44.70;;;9.20;99.90;;;10.56;100.00;99766.75;4987593;28;68864;-59
2021/05/02 09:12:17;;;;;;;66.93;44.70;;;9.30;99.90;;;10.49;100.00;99767.63;4991632;28;65299;-60
2021/05/02 09:15:35;;;;;;;66.37;45.27;;;9.30;99.90;;;10.35;100.00;99758.44;4993776;28;72219;-60
2021/05/02 09:18:59;;;;;;;60.87;43.10;;;9.30;99.90;;;10.64;100.00;99771.25;4987082;28;75366;-60
2021/05/02 09:22:19;;;;;;;73.63;49.00;;;9.40;99.90;;;10.75;100.00;99768.22;4978142;28;63924;-60
2021/05/02 09:25:42;;;;;;;70.83;47.53;;;9.40;99.90;;;10.75;100.00;99774.41;4998854;28;60447;-60
2021/05/02 09:29:11;;;;;;;63.90;46.80;;;9.40;99.90;;;10.76;100.00;99776.06;4998745;28;63474;-60
2021/05/02 09:32:45;;;;;;;62.97;42.97;;;9.50;99.90;;;10.57;100.00;99779.13;4972223;28;93817;-59
2021/05/02 09:36:07;;;;;;;61.93;44.53;;;9.60;99.90;;;10.80;100.00;99781.91;4982949;28;98346;-58
2021/05/02 09:39:20;;;;;;;64.40;44.43;;;9.60;99.90;;;10.85;100.00;99776.88;4957340;28;94006;-58
2021/05/02 09:42:35;;;;;;;65.77;43.27;;;9.60;99.90;;;10.79;100.00;99777.56;4939216;28;97299;-60
2021/05/02 09:45:46;;;;;;;84.07;52.83;;;9.70;99.90;;;11.14;100.00;99786.97;4938097;28;99670;-60
2021/05/02 09:49:04;;;;;;;92.70;56.23;;;9.80;99.90;;;11.02;100.00;99788.34;4951364;28;96188;-60
2021/05/02 09:59:29;;;;;;;58.90;39.77;;;10.10;99.90;;;11.28;100.00;99790.75;4974220;28;73840;-60
2021/05/02 10:02:53;;;;;;;55.97;41.63;;;10.20;99.90;;;11.31;100.00;99791.25;4979160;28;81693;-64
2021/05/02 10:06:20;;;;;;;55.03;39.57;;;10.30;99.90;;;11.59;100.00;99798.81;4984195;28;70203;-60
2021/05/02 10:09:33;;;;;;;52.43;40.13;;;10.40;99.90;;;11.62;100.00;99799.28;4973331;28;86419;-60
2021/05/02 10:12:46;;;;;;;52.90;40.97;;;10.50;99.90;;;11.53;100.00;99794.97;4975821;28;69985;-60
2021/05/02 10:15:58;;;;;;;51.93;39.30;;;10.60;99.90;;;11.39;100.00;99801.91;4947617;28;95959;-60
2021/05/02 10:19:10;;;;;;;50.70;39.50;;;10.60;99.90;;;11.52;100.00;99809.38;4954797;28;97630;-59
2021/05/02 10:22:48;;;;;;;51.00;36.80;;;10.60;99.90;;;11.23;100.00;99799.34;4961879;28;93795;-58
2021/05/02 10:26:11;;;;;;;47.13;36.73;;;10.60;99.90;;;11.43;100.00;99803.25;4848927;28;97936;-60
2021/05/02 10:29:40;;;;;;;47.20;34.10;;;10.50;99.90;;;11.38;100.00;99810.13;4952472;28;98463;-60
2021/05/02 10:33:00;;;;;;;44.13;36.17;;;10.40;99.90;;;11.46;100.00;99818.97;4963112;28;94209;-60
2021/05/02 10:40:37;;;;;;;45.77;36.20;;;10.40;99.90;;;11.64;100.00;99818.69;4919174;28;98517;-60
2021/05/02 10:43:56;;;;;;;45.30;36.10;;;10.40;99.90;;;11.81;100.00;99823.00;4946013;28;93343;-60
2021/05/02 10:48:07;;;;;;;49.17;37.10;;;10.50;99.90;;;11.69;100.00;99831.56;4956917;28;100372;-60
2021/05/02 10:51:25;;;;;;;42.57;33.33;;;10.60;99.90;;;11.70;100.00;99826.03;4874024;28;97737;-60
2021/05/02 10:54:49;;;;;;;43.07;34.10;;;10.60;99.90;;;11.67;100.00;99838.94;4945409;28;99100;-60
2021/05/02 10:58:26;;;;;;;40.37;33.87;;;10.70;99.90;;;11.86;100.00;99843.91;4952079;28;97500;-59
2021/05/02 11:05:28;;;;;;;40.63;34.33;;;10.80;99.90;;;12.49;100.00;99846.25;4967844;28;67387;-59
2021/05/02 11:12:21;;;;;;;32.63;27.97;;;11.30;99.90;;;12.46;100.00;99852.00;4966175;28;67463;-59
2021/05/02 11:15:57;;;;;;;35.57;29.70;;;11.60;99.90;;;12.62;100.00;99855.53;4978138;28;76518;-58
2021/05/02 11:19:24;;;;;;;33.33;27.53;;;11.80;99.90;;;13.09;100.00;99855.25;4984287;28;75190;-60
2021/05/02 11:23:03;;;;;;;30.77;27.30;;;12.00;99.90;;;13.18;100.00;99851.50;4981464;28;79013;-59
2021/05/02 11:26:14;;;;;;;30.43;26.33;;;12.30;99.90;;;12.78;100.00;99850.88;4985257;28;65683;-59
2021/05/02 11:33:08;;;;;;;30.80;24.93;;;12.50;99.90;;;13.04;100.00;99846.91;4987617;28;71513;-58
2021/05/02 11:36:45;;;;;;;31.17;24.93;;;12.60;99.90;;;13.33;100.00;99860.38;4990438;28;67054;-58
2021/05/02 11:40:21;;;;;;;27.67;23.77;;;12.70;99.90;;;13.62;100.00;99862.19;4992206;28;53140;-57
2021/05/02 11:43:34;;;;;;;27.77;24.27;;;12.90;99.90;;;13.43;100.00;99854.72;4975898;28;51227;-56
2021/05/02 11:46:50;;;;;;;26.27;22.80;;;13.10;99.90;;;13.20;100.00;99870.94;4993894;28;57609;-57
2021/05/02 11:50:02;;;;;;;24.27;21.63;;;13.10;99.90;;;13.14;100.00;99866.28;4994085;28;58504;-57
2021/05/02 11:53:13;;;;;;;25.23;22.17;;;13.10;99.90;;;13.56;100.00;99871.84;4996157;28;54678;-56
2021/05/02 11:56:31;;;;;;;23.93;21.10;;;13.10;99.90;;;13.55;100.00;99874.72;4990965;28;75586;-58
2021/05/02 11:59:45;;;;;;;25.07;20.93;;;13.20;99.90;;;13.54;100.00;99881.13;4996980;28;56700;-57
2021/05/02 12:03:01;;;;;;;21.60;19.30;;;13.30;99.90;;;13.35;100.00;99874.47;4993819;28;52753;-56
2021/05/02 12:06:18;;;;;;;24.70;21.13;;;13.30;99.90;;;13.64;100.00;99887.03;4993365;28;53116;-57
2021/05/02 12:09:37;;;;;;;24.00;20.23;;;13.40;99.90;;;13.77;100.00;99891.75;5002271;28;45937;-58
2021/05/02 12:12:55;;;;;;;21.67;18.77;;;13.50;99.90;;;13.91;100.00;99882.81;5002230;28;46861;-57
2021/05/02 12:16:25;;;;;;;22.63;20.23;;;13.70;99.90;;;14.31;100.00;99884.91;4986290;28;50193;-58
2021/05/02 12:19:37;;;;;;;24.60;20.73;;;13.90;99.90;;;14.34;100.00;99889.91;5002103;28;43229;-57
2021/05/02 12:22:53;;;;;;;20.83;18.43;;;14.20;99.90;;;14.89;100.00;99882.13;5003284;28;45522;-58
2021/05/02 12:26:12;;;;;;;26.53;22.73;;;14.50;99.90;;;15.00;100.00;99879.72;5002292;28;43319;-57
2021/05/02 12:29:27;;;;;;;22.27;19.80;;;14.80;99.90;;;14.67;100.00;99884.88;5002148;28;38898;-57
2021/05/02 12:36:30;;;;;;;22.75;20.35;;;15.00;99.90;;;13.91;100.00;99894.41;4953341;28;52418;-58
2021/05/02 12:39:48;;;;;;;23.77;21.27;;;14.70;99.90;;;13.72;100.00;99894.19;5004233;28;48117;-58
2021/05/02 12:43:00;;;;;;;22.27;19.92;;;14.50;99.90;;;13.61;100.00;99895.47;4995147;28;49846;-57
2021/05/02 12:46:12;;;;;;;22.87;20.33;;;14.20;99.90;;;13.55;100.00;99909.66;5002688;28;47212;-58
2021/05/02 12:49:35;;;;;;;22.63;19.73;;;14.10;99.90;;;13.50;100.00;99909.38;5000181;28;42658;-58
2021/05/02 12:52:48;;;;;;;24.93;22.23;;;13.90;99.90;;;12.70;100.00;99925.28;4998698;28;49593;-59
2021/05/02 13:06:28;;;;;;;35.07;28.53;;;11.40;99.90;;;11.00;100.00;99953.69;4992057;28;75890;-59
2021/05/02 13:09:45;;;;;;;36.20;30.10;;;10.80;99.90;;;10.96;100.00;99960.38;4994383;28;69753;-59
2021/05/02 13:13:14;;;;;;;34.80;30.33;;;10.40;99.90;;;10.75;100.00;99955.53;4991564;28;55003;-60
2021/05/02 13:16:25;;;;;;;40.37;32.97;;;10.10;99.90;;;10.84;100.00;99964.41;4995452;28;81627;-56
2021/05/02 13:19:48;;;;;;;38.10;33.47;;;9.90;99.90;;;10.93;100.00;99974.94;4998356;28;54411;-59
2021/05/02 13:26:57;;;;;;;35.07;30.13;;;9.80;99.90;;;10.80;100.00;99977.28;4983948;28;60050;-59
2021/05/02 13:30:13;;;;;;;32.47;26.77;;;9.70;99.90;;;10.90;100.00;99988.66;4989907;28;71767;-60
2021/05/02 13:33:47;;;;;;;38.67;31.97;;;9.60;99.90;;;10.73;100.00;99987.81;4982919;28;74227;-59
2021/05/02 13:36:59;;;;;;;37.47;33.20;;;9.60;99.90;;;10.86;100.00;99998.03;4990434;28;72950;-58
2021/05/02 13:40:11;;;;;;;38.63;33.93;;;9.50;99.90;;;10.91;100.00;100005.53;4993470;28;62972;-60
2021/05/02 13:43:24;;;;;;;39.10;30.23;;;9.50;99.90;;;10.88;100.00;100000.53;4984855;28;78259;-59
2021/05/02 13:46:35;;;;;;;40.23;34.10;;;9.50;99.90;;;10.93;100.00;100009.72;4994112;28;81325;-59
2021/05/02 13:49:47;;;;;;;42.07;34.73;;;9.50;99.90;;;10.97;100.00;100024.47;4989491;28;65147;-59
2021/05/02 13:52:59;;;;;;;40.50;30.50;;;9.60;99.90;;;10.98;100.00;100025.31;4978052;28;70780;-58
2021/05/02 13:56:12;;;;;;;41.37;36.40;;;9.60;99.90;;;11.05;100.00;100031.66;4968790;28;70457;-59
2021/05/02 13:59:23;;;;;;;45.50;37.93;;;9.60;99.90;;;11.19;100.00;100024.78;4986458;28;74613;-59
2021/05/02 14:02:34;;;;;;;36.93;30.30;;;9.70;99.90;;;11.07;100.00;100035.00;4981273;28;59686;-60
2021/05/02 14:05:45;;;;;;;38.87;34.43;;;9.80;99.90;;;11.12;100.00;100036.19;4992351;28;66155;-61
2021/05/02 14:08:57;;;;;;;39.93;35.10;;;9.80;99.90;;;11.06;100.00;100036.00;4997032;28;60361;-60
2021/05/02 14:12:09;;;;;;;43.33;35.77;;;9.80;99.90;;;11.02;100.00;100050.72;4984202;28;68190;-61
2021/05/02 14:15:32;;;;;;;39.07;31.33;;;9.80;99.90;;;11.01;100.00;100043.69;4975518;28;57297;-60
2021/05/02 14:18:43;;;;;;;36.17;31.07;;;9.80;99.90;;;10.96;100.00;100054.91;4981198;28;74138;-60
2021/05/02 14:21:55;;;;;;;36.27;30.87;;;9.70;99.90;;;11.01;100.00;100057.91;4982347;28;92120;-60
2021/05/02 14:25:18;;;;;;;34.07;29.97;;;9.70;99.90;;;10.86;100.00;100058.75;4993673;28;49469;-61
2021/05/02 14:32:14;;;;;;;26.63;21.20;;;9.60;99.90;;;10.75;100.00;100063.44;4985817;28;56825;-59
2021/05/02 14:35:25;;;;;;;27.13;24.23;;;9.50;99.90;;;10.86;100.00;100064.94;4988779;28;60432;-59
2021/05/02 14:38:37;;;;;;;26.23;23.43;;;9.50;99.90;;;10.85;100.00;100067.78;4972274;28;49883;-61
2021/05/02 14:41:48;;;;;;;26.60;23.17;;;9.40;99.90;;;10.73;100.00;100077.97;4994371;28;71363;-60
2021/05/02 14:45:01;;;;;;;24.30;21.80;;;9.40;99.90;;;10.75;100.00;100065.28;4991026;28;61882;-61
2021/05/02 14:48:13;;;;;;;24.90;22.13;;;9.40;99.90;;;10.76;100.00;100072.25;4986986;28;76828;-60
2021/05/02 14:54:52;;;;;;;23.77;21.20;;;9.40;99.90;;;10.85;100.00;100075.81;4985910;28;63540;-60
2021/05/02 14:58:09;;;;;;;22.20;19.80;;;9.40;99.90;;;10.67;100.00;100089.31;4994193;28;54830;-60
2021/05/02 15:15:25;;;;;;;21.00;18.90;;;9.50;99.90;;;10.78;100.00;100097.03;4962484;28;50455;-61
2021/05/02 15:18:37;;;;;;;20.47;18.23;;;9.50;99.90;;;10.71;100.00;100088.00;4997944;28;50320;-61